Time;durP1;ratioP1;P1;durP2;ratioP2;P2;SDS_P1;SDS_P2;PMS_P1;PMS_P2;Temp;Humidity;BMP_temperature;BMP_pressure;BME280_temperature;BME280_humidity;BME280_pressure;Samples;Min_cycle;Max_cycle;Signal;HPM_P1;HPM_P2
2022/06/05 00:01:19;;;;;;;7.03;6.53;;;23.10;79.10;;;;;;6105989;23;21151;-82
2022/06/05 00:04:11;;;;;;;9.10;7.20;;;22.90;79.80;;;;;;6130461;23;20398;-83
2022/06/05 00:06:54;;;;;;;6.77;6.37;;;22.80;80.30;;;;;;6131626;23;20569;-83
2022/06/05 00:09:56;;;;;;;7.50;7.00;;;23.10;80.80;;;;;;6105573;23;20439;-83
2022/06/05 00:12:53;;;;;;;6.80;6.37;;;22.90;79.50;;;;;;6136469;23;20395;-84
2022/06/05 00:15:20;;;;;;;7.77;6.90;;;22.80;80.50;;;;;;6136799;23;20491;-83
2022/06/05 00:17:47;;;;;;;7.03;6.57;;;22.70;80.90;;;;;;6107571;23;20416;-84
2022/06/05 00:20:14;;;;;;;7.50;7.00;;;22.70;81.00;;;;;;6131809;23;20432;-84
2022/06/05 00:22:41;;;;;;;7.80;7.00;;;22.70;81.40;;;;;;6131537;23;20408;-83
2022/06/05 00:25:09;;;;;;;8.00;7.43;;;22.90;81.90;;;;;;6134224;23;20418;-83
2022/06/05 00:28:13;;;;;;;7.90;7.40;;;22.90;82.20;;;;;;6131792;23;20918;-84
2022/06/05 00:30:53;;;;;;;7.83;7.30;;;23.00;82.70;;;;;;6132609;23;20491;-84
2022/06/05 00:33:35;;;;;;;7.73;6.87;;;22.80;83.00;;;;;;6133258;23;20396;-83
2022/06/05 00:36:36;;;;;;;7.50;6.90;;;22.60;83.60;;;;;;6132444;23;20444;-83
2022/06/05 00:39:31;;;;;;;8.50;8.00;;;22.50;85.10;;;;;;6077247;23;20466;-82
2022/06/05 00:42:06;;;;;;;7.93;7.27;;;22.70;83.90;;;;;;6133734;23;20396;-83
2022/06/05 00:44:34;;;;;;;8.10;7.60;;;22.80;83.00;;;;;;6107352;23;20459;-82
2022/06/05 00:47:02;;;;;;;8.40;7.73;;;22.60;83.30;;;;;;6144176;23;20423;-84
2022/06/05 00:49:37;;;;;;;8.10;7.60;;;22.60;84.80;;;;;;6150346;23;20491;-82
2022/06/05 00:52:06;;;;;;;8.73;7.97;;;22.60;84.90;;;;;;6152597;23;20491;-82
2022/06/05 00:54:33;;;;;;;7.17;6.67;;;22.70;84.00;;;;;;6151967;23;20418;-83
2022/06/05 00:57:00;;;;;;;7.90;7.30;;;22.40;84.50;;;;;;6126382;23;20583;-81
2022/06/05 00:59:27;;;;;;;7.97;7.37;;;22.20;85.50;;;;;;6151487;23;20436;-81
2022/06/05 01:01:55;;;;;;;7.70;7.10;;;22.20;85.90;;;;;;6151271;23;20480;-82
2022/06/05 01:04:21;;;;;;;7.80;7.30;;;22.30;85.80;;;;;;6151649;23;20396;-82
2022/06/05 01:06:48;;;;;;;7.10;6.60;;;22.20;85.30;;;;;;6123000;23;20392;-82
2022/06/05 01:09:15;;;;;;;7.33;6.83;;;22.00;86.10;;;;;;6146408;23;20459;-83
2022/06/05 01:11:44;;;;;;;7.80;7.30;;;22.00;86.50;;;;;;6136683;23;20411;-82
2022/06/05 01:14:34;;;;;;;8.90;8.30;;;22.00;86.40;;;;;;6131482;23;20416;-83
2022/06/05 01:17:12;;;;;;;7.33;6.83;;;22.10;87.00;;;;;;6130255;23;20466;-82
2022/06/05 01:20:03;;;;;;;7.80;7.10;;;22.10;87.30;;;;;;6129764;23;20424;-83
2022/06/05 01:22:36;;;;;;;7.70;7.20;;;22.10;87.60;;;;;;6060723;23;20412;-82
2022/06/05 01:25:41;;;;;;;9.47;8.50;;;22.00;87.80;;;;;;6127475;23;20418;-83
2022/06/05 01:28:12;;;;;;;7.80;7.10;;;21.90;88.50;;;;;;6101315;23;20900;-82
2022/06/05 01:31:05;;;;;;;7.33;6.83;;;21.80;89.10;;;;;;6102411;23;20436;-82
2022/06/05 01:33:33;;;;;;;7.43;6.83;;;21.90;88.80;;;;;;6084523;23;20590;-83
2022/06/05 01:36:13;;;;;;;7.53;7.03;;;21.90;87.70;;;;;;6101526;23;20450;-83
2022/06/05 01:38:51;;;;;;;6.97;6.47;;;21.90;87.90;;;;;;6126333;23;20868;-84
2022/06/05 01:41:33;;;;;;;6.93;6.43;;;21.80;87.90;;;;;;6126808;23;20392;-82
2022/06/05 01:44:05;;;;;;;7.03;6.57;;;21.80;88.30;;;;;;6128486;23;20423;-81
2022/06/05 01:46:39;;;;;;;7.80;7.30;;;21.50;89.00;;;;;;6101159;23;20404;-82
2022/06/05 01:49:19;;;;;;;7.50;7.00;;;21.60;88.90;;;;;;6128287;23;20498;-83
2022/06/05 01:51:52;;;;;;;7.10;6.60;;;21.60;88.70;;;;;;6102362;23;20415;-82
2022/06/05 01:54:28;;;;;;;6.73;6.23;;;21.50;89.10;;;;;;6129574;23;20408;-84
2022/06/05 01:56:58;;;;;;;6.90;6.37;;;21.60;89.00;;;;;;6129625;23;20658;-83
2022/06/05 01:59:34;;;;;;;7.03;6.53;;;21.60;89.30;;;;;;6132125;23;20495;-83
2022/06/05 02:02:04;;;;;;;6.63;6.10;;;21.50;89.00;;;;;;6134347;23;20415;-82
2022/06/05 02:05:00;;;;;;;7.00;6.50;;;21.60;89.10;;;;;;6140278;23;20388;-83
2022/06/05 02:07:33;;;;;;;7.43;6.93;;;21.50;89.00;;;;;;6097755;23;20416;-83
2022/06/05 02:10:08;;;;;;;7.03;6.50;;;21.50;89.50;;;;;;6144119;23;20524;-82
2022/06/05 02:12:36;;;;;;;6.80;6.30;;;21.40;90.10;;;;;;6130402;23;20411;-83
2022/06/05 02:15:07;;;;;;;6.83;6.33;;;21.40;90.20;;;;;;6133547;23;20412;-82
2022/06/05 02:17:36;;;;;;;7.83;7.03;;;21.40;89.70;;;;;;6137285;23;20778;-82
2022/06/05 02:20:05;;;;;;;7.37;6.87;;;21.20;89.90;;;;;;6136715;23;20815;-82
2022/06/05 02:22:43;;;;;;;7.73;6.90;;;21.20;90.00;;;;;;6128780;23;20440;-82
2022/06/05 02:25:11;;;;;;;6.90;6.40;;;21.30;90.00;;;;;;6103264;23;20400;-82
2022/06/05 02:27:38;;;;;;;6.90;6.50;;;21.20;89.80;;;;;;6101780;23;20848;-81
2022/06/05 02:30:07;;;;;;;7.57;7.07;;;21.20;90.00;;;;;;6126989;23;20439;-82
2022/06/05 02:33:11;;;;;;;7.17;6.67;;;21.20;90.10;;;;;;6127827;23;20423;-81
2022/06/05 02:36:00;;;;;;;6.67;6.17;;;21.10;90.10;;;;;;6103345;23;20451;-85
2022/06/05 02:38:39;;;;;;;6.70;6.20;;;21.10;90.30;;;;;;6107767;23;20443;-83
2022/06/05 02:41:16;;;;;;;6.70;6.20;;;21.10;90.30;;;;;;6127443;23;20463;-82
2022/06/05 02:47:24;;;;;;;7.23;6.63;;;21.10;90.80;;;;;;6127409;23;20495;-84
2022/06/05 02:50:03;;;;;;;6.30;5.80;;;21.00;90.70;;;;;;6126462;23;20439;-84
2022/06/05 02:52:32;;;;;;;6.80;6.13;;;21.10;90.70;;;;;;6128700;23;20410;-82
2022/06/05 02:55:09;;;;;;;5.90;5.53;;;21.10;90.80;;;;;;6129426;23;20481;-83
2022/06/05 02:57:36;;;;;;;6.13;5.73;;;21.10;90.60;;;;;;6128203;23;20435;-83
2022/06/05 03:00:07;;;;;;;6.90;6.30;;;21.10;90.80;;;;;;6130833;23;21215;-84
2022/06/05 03:05:19;;;;;;;6.83;6.43;;;21.10;90.90;;;;;;6129741;23;20397;-84
2022/06/05 03:07:46;;;;;;;6.23;5.83;;;21.00;91.00;;;;;;6102081;23;20426;-84
2022/06/05 03:10:13;;;;;;;7.03;6.33;;;21.00;91.20;;;;;;6131873;23;20427;-84
2022/06/05 03:12:40;;;;;;;7.43;6.93;;;21.00;91.50;;;;;;6129264;23;20415;-84
2022/06/05 03:15:07;;;;;;;6.60;6.20;;;20.90;91.70;;;;;;6126771;23;20411;-83
2022/06/05 03:17:34;;;;;;;6.50;6.10;;;21.00;91.50;;;;;;6128371;23;20455;-84
2022/06/05 03:20:00;;;;;;;6.50;6.10;;;21.00;91.30;;;;;;6102551;23;20432;-84
2022/06/05 03:22:27;;;;;;;8.63;6.67;;;21.10;91.20;;;;;;6103176;23;20407;-84
2022/06/05 03:24:54;;;;;;;6.60;6.00;;;21.20;91.10;;;;;;6127862;23;20423;-84
2022/06/05 03:27:21;;;;;;;7.30;6.20;;;21.20;91.00;;;;;;6132579;23;20420;-83
2022/06/05 03:29:48;;;;;;;6.40;6.00;;;21.10;91.30;;;;;;6129025;23;20431;-84
2022/06/05 03:32:14;;;;;;;6.17;5.70;;;21.10;91.20;;;;;;6103338;23;20479;-84
2022/06/05 03:34:41;;;;;;;7.03;6.63;;;21.10;91.30;;;;;;6128868;23;20856;-83
2022/06/05 03:37:08;;;;;;;6.30;5.87;;;21.00;91.30;;;;;;6128859;23;20562;-83
2022/06/05 03:39:35;;;;;;;6.80;6.40;;;21.00;91.30;;;;;;6106576;23;20764;-83
2022/06/05 03:42:06;;;;;;;6.40;5.90;;;21.00;91.20;;;;;;6128478;23;20470;-82
2022/06/05 03:44:40;;;;;;;6.70;6.30;;;21.10;91.20;;;;;;6126710;23;20412;-83
2022/06/05 03:47:10;;;;;;;6.80;6.30;;;21.10;91.40;;;;;;6101693;23;20427;-83
2022/06/05 03:49:37;;;;;;;6.07;5.67;;;21.00;91.50;;;;;;6100971;23;20479;-83
2022/06/05 03:52:05;;;;;;;6.60;5.93;;;21.00;91.20;;;;;;6130087;23;20458;-84
2022/06/05 03:54:33;;;;;;;7.23;6.73;;;21.10;91.20;;;;;;6135532;23;20849;-84
2022/06/05 03:57:01;;;;;;;6.13;5.63;;;21.10;91.10;;;;;;6134491;23;21074;-82
2022/06/05 03:59:28;;;;;;;6.23;5.83;;;21.00;91.30;;;;;;6131379;23;20436;-83
2022/06/05 04:01:55;;;;;;;6.70;6.10;;;21.00;91.40;;;;;;6103869;23;20507;-83
2022/06/05 04:04:23;;;;;;;6.20;5.80;;;20.90;91.30;;;;;;6103697;23;20427;-82
2022/06/05 04:06:49;;;;;;;6.67;6.17;;;21.00;91.50;;;;;;6127940;23;20909;-84
2022/06/05 04:09:17;;;;;;;6.87;6.37;;;20.90;91.50;;;;;;6102114;23;20440;-82
2022/06/05 04:11:44;;;;;;;6.50;6.10;;;20.90;91.60;;;;;;6127847;23;20431;-84
2022/06/05 04:14:11;;;;;;;6.33;5.93;;;21.00;91.60;;;;;;6127157;23;20910;-82
2022/06/05 04:16:42;;;;;;;7.10;6.43;;;21.00;91.50;;;;;;6127629;23;20443;-84
2022/06/05 04:19:09;;;;;;;6.70;6.30;;;21.10;91.30;;;;;;6101709;23;20831;-83
2022/06/05 04:21:37;;;;;;;7.30;6.80;;;21.00;91.30;;;;;;6101665;23;20412;-84
2022/06/05 04:24:04;;;;;;;7.07;6.57;;;21.20;91.40;;;;;;6128779;23;20408;-83
2022/06/05 04:26:33;;;;;;;6.50;6.07;;;21.20;91.00;;;;;;6102926;23;20434;-81
2022/06/05 04:29:01;;;;;;;7.20;6.70;;;21.30;90.60;;;;;;6140091;23;20432;-83
2022/06/05 04:31:32;;;;;;;6.60;6.10;;;21.30;90.60;;;;;;6128437;23;20438;-84
2022/06/05 04:34:01;;;;;;;6.90;6.50;;;21.30;90.50;;;;;;6130550;23;20856;-83
2022/06/05 04:36:28;;;;;;;6.77;6.27;;;21.30;90.40;;;;;;6127375;23;20412;-84
2022/06/05 04:38:55;;;;;;;6.97;6.50;;;21.30;90.70;;;;;;6126648;23;20428;-83
2022/06/05 04:41:22;;;;;;;6.53;6.13;;;21.10;90.80;;;;;;6127211;23;20900;-82
2022/06/05 04:43:49;;;;;;;6.40;6.00;;;21.00;91.10;;;;;;6099588;23;20499;-84
2022/06/05 04:46:18;;;;;;;6.90;6.40;;;21.00;91.20;;;;;;6101245;23;20412;-82
2022/06/05 04:48:45;;;;;;;6.83;6.33;;;21.20;90.80;;;;;;6127995;23;20462;-83
2022/06/05 04:51:12;;;;;;;7.03;6.53;;;21.20;90.70;;;;;;6102588;23;20770;-85
2022/06/05 04:53:40;;;;;;;6.77;6.27;;;21.00;91.10;;;;;;6102725;23;20495;-82
2022/06/05 04:56:11;;;;;;;6.50;6.10;;;21.00;91.20;;;;;;6127326;23;20412;-83
2022/06/05 04:58:38;;;;;;;6.60;6.00;;;21.20;91.30;;;;;;6100674;23;20754;-83
2022/06/05 05:01:13;;;;;;;7.10;6.60;;;21.10;91.20;;;;;;6127020;23;20412;-83
2022/06/05 05:03:40;;;;;;;7.30;6.70;;;21.00;91.40;;;;;;6127500;23;20407;-84
2022/06/05 05:06:08;;;;;;;6.70;6.30;;;21.00;91.50;;;;;;6128438;23;20419;-84
2022/06/05 05:08:35;;;;;;;7.10;6.60;;;20.80;91.80;;;;;;6127032;23;20422;-84
2022/06/05 05:11:04;;;;;;;7.67;6.97;;;20.80;92.30;;;;;;6101756;23;20786;-84
2022/06/05 05:13:31;;;;;;;6.63;6.10;;;20.90;92.10;;;;;;6102886;23;20483;-83
2022/06/05 05:15:58;;;;;;;6.90;6.20;;;21.00;91.90;;;;;;6128909;23;20407;-84
2022/06/05 05:18:25;;;;;;;6.70;6.20;;;21.00;92.20;;;;;;6128298;23;20440;-84
2022/06/05 05:20:53;;;;;;;7.73;6.93;;;21.10;92.00;;;;;;6102769;23;20411;-84
2022/06/05 05:23:20;;;;;;;7.13;6.60;;;21.20;92.10;;;;;;6128818;23;20436;-83
2022/06/05 05:25:48;;;;;;;6.77;6.37;;;21.30;91.80;;;;;;6127800;23;20420;-84
2022/06/05 05:28:15;;;;;;;7.03;6.53;;;21.30;91.90;;;;;;6125043;23;20412;-83
2022/06/05 05:30:44;;;;;;;6.70;6.30;;;21.10;92.00;;;;;;6107037;23;20486;-83
2022/06/05 05:33:11;;;;;;;7.37;6.87;;;21.10;92.30;;;;;;6134240;23;20444;-83
2022/06/05 05:35:38;;;;;;;8.17;7.47;;;21.20;92.20;;;;;;6126947;23;20407;-84
2022/06/05 05:38:07;;;;;;;7.00;6.50;;;21.10;92.30;;;;;;6102547;23;20855;-83
2022/06/05 05:43:19;;;;;;;6.97;6.47;;;21.00;92.60;;;;;;6127344;23;20420;-81
2022/06/05 05:45:46;;;;;;;7.03;6.40;;;21.10;92.90;;;;;;6126280;23;20412;-83
2022/06/05 05:48:13;;;;;;;7.70;7.00;;;21.20;92.80;;;;;;6100526;23;20415;-83
2022/06/05 05:50:43;;;;;;;7.40;6.80;;;21.20;92.80;;;;;;6126291;23;20442;-84
2022/06/05 05:53:12;;;;;;;6.57;6.13;;;21.20;92.60;;;;;;6126361;23;20403;-83
2022/06/05 05:55:39;;;;;;;7.73;6.93;;;21.30;92.50;;;;;;6126519;23;20412;-84
2022/06/05 05:58:05;;;;;;;7.17;6.57;;;21.30;92.30;;;;;;6101153;23;20490;-84
2022/06/05 06:00:33;;;;;;;7.00;6.50;;;21.30;92.60;;;;;;6126884;23;20439;-83
2022/06/05 06:02:59;;;;;;;6.80;6.27;;;21.30;92.20;;;;;;6128259;23;20790;-83
2022/06/05 06:05:31;;;;;;;7.50;7.00;;;21.30;92.20;;;;;;6127557;23;20843;-83
2022/06/05 06:07:59;;;;;;;7.20;6.60;;;21.30;92.40;;;;;;6101006;23;20470;-83
2022/06/05 06:10:26;;;;;;;6.87;6.47;;;21.40;92.20;;;;;;6125374;23;20439;-84
2022/06/05 06:12:52;;;;;;;7.00;6.50;;;21.40;92.30;;;;;;6126092;23;20480;-84
2022/06/05 06:15:19;;;;;;;7.80;7.20;;;21.40;92.20;;;;;;6102632;23;20773;-84
2022/06/05 06:17:45;;;;;;;7.50;7.00;;;21.40;92.30;;;;;;6128621;23;20446;-84
2022/06/05 06:20:12;;;;;;;6.80;6.30;;;21.40;92.50;;;;;;6126427;23;20498;-83
2022/06/05 06:22:41;;;;;;;7.40;6.80;;;21.30;92.60;;;;;;6131327;23;20422;-83
2022/06/05 06:25:08;;;;;;;7.87;7.30;;;21.50;92.60;;;;;;6100094;23;20430;-82
2022/06/05 06:27:35;;;;;;;7.50;7.00;;;21.40;92.40;;;;;;6126400;23;20419;-82
2022/06/05 06:30:07;;;;;;;7.13;6.63;;;21.40;92.50;;;;;;6127408;23;21285;-82
2022/06/05 06:32:35;;;;;;;6.87;6.47;;;21.40;92.70;;;;;;6128038;23;20424;-83
2022/06/05 06:35:02;;;;;;;7.90;7.30;;;21.50;92.70;;;;;;6129000;23;20416;-83
2022/06/05 06:37:29;;;;;;;7.87;7.27;;;21.50;92.60;;;;;;6103513;23;20448;-81
2022/06/05 06:39:56;;;;;;;7.80;7.30;;;21.50;92.90;;;;;;6130137;23;20438;-83
2022/06/05 06:42:22;;;;;;;8.10;7.50;;;21.40;92.80;;;;;;6102593;23;20886;-83
2022/06/05 06:44:49;;;;;;;7.80;7.20;;;21.60;92.90;;;;;;6128479;23;20403;-82
2022/06/05 06:47:16;;;;;;;7.57;6.97;;;21.60;92.70;;;;;;6128597;23;20743;-82
2022/06/05 06:49:42;;;;;;;7.50;6.97;;;21.70;92.60;;;;;;6129013;23;20467;-82
2022/06/05 06:52:09;;;;;;;8.57;7.93;;;21.70;92.50;;;;;;6128420;23;20426;-83
2022/06/05 06:54:36;;;;;;;8.27;7.70;;;21.70;92.70;;;;;;6142685;23;20420;-84
2022/06/05 06:57:02;;;;;;;8.20;7.60;;;21.50;93.10;;;;;;6149811;23;20406;-83
2022/06/05 06:59:29;;;;;;;8.13;7.63;;;21.70;93.00;;;;;;6145349;23;20447;-83
2022/06/05 07:01:56;;;;;;;8.70;7.90;;;21.70;92.90;;;;;;6131191;23;20714;-83
2022/06/05 07:04:22;;;;;;;8.23;7.73;;;21.70;92.90;;;;;;6131145;23;20443;-84
2022/06/05 07:06:49;;;;;;;7.93;7.43;;;21.70;93.00;;;;;;6134344;23;20731;-82
2022/06/05 07:09:16;;;;;;;8.57;7.87;;;21.80;93.20;;;;;;6134053;23;20495;-84
2022/06/05 07:11:43;;;;;;;7.63;7.23;;;21.80;93.00;;;;;;6132398;23;20429;-84
2022/06/05 07:14:10;;;;;;;8.40;7.70;;;21.90;92.70;;;;;;6134716;23;20419;-82
2022/06/05 07:16:38;;;;;;;8.20;7.67;;;21.90;92.70;;;;;;6107467;23;20418;-82
2022/06/05 07:19:05;;;;;;;7.20;6.70;;;21.80;92.80;;;;;;6110848;23;20448;-83
2022/06/05 07:21:32;;;;;;;9.33;8.63;;;21.70;92.90;;;;;;6121216;23;20396;-83
2022/06/05 07:23:59;;;;;;;8.57;7.97;;;21.90;92.90;;;;;;6149330;23;20487;-82
2022/06/05 07:26:29;;;;;;;8.30;7.70;;;22.10;92.60;;;;;;6139293;23;20857;-83
2022/06/05 07:28:56;;;;;;;7.83;7.33;;;22.30;92.20;;;;;;6131189;23;20923;-83
2022/06/05 07:31:26;;;;;;;8.30;7.53;;;22.20;92.20;;;;;;6132529;23;20875;-84
2022/06/05 07:33:53;;;;;;;7.27;6.77;;;22.20;92.40;;;;;;6135006;23;20420;-84
2022/06/05 07:36:25;;;;;;;8.40;7.70;;;22.40;92.00;;;;;;6135865;23;20480;-84
2022/06/05 07:38:55;;;;;;;7.67;7.17;;;22.30;92.10;;;;;;6105060;23;20977;-83
2022/06/05 07:41:29;;;;;;;8.00;7.30;;;22.30;92.00;;;;;;6104625;23;20471;-84
2022/06/05 07:43:56;;;;;;;9.07;8.37;;;22.40;92.00;;;;;;6131026;23;20399;-84
2022/06/05 07:46:23;;;;;;;9.07;8.30;;;22.50;92.10;;;;;;6118958;23;20400;-82
2022/06/05 07:48:51;;;;;;;8.70;8.10;;;22.70;91.50;;;;;;6145830;23;20432;-82
2022/06/05 07:54:32;;;;;;;7.70;7.20;;;22.70;91.40;;;;;;6130213;23;20789;-84
2022/06/05 07:57:01;;;;;;;7.93;7.23;;;22.50;91.30;;;;;;6102545;23;20414;-83
2022/06/05 07:59:31;;;;;;;8.03;7.43;;;22.50;91.70;;;;;;6128668;23;20448;-84
2022/06/05 08:02:03;;;;;;;8.43;7.83;;;22.70;91.50;;;;;;6128924;23;20407;-83
2022/06/05 08:04:31;;;;;;;7.50;7.00;;;22.60;91.80;;;;;;6128083;23;20398;-83
2022/06/05 08:06:59;;;;;;;7.70;7.20;;;22.50;92.40;;;;;;6103147;23;20400;-83
2022/06/05 08:09:27;;;;;;;9.10;8.30;;;22.50;92.80;;;;;;6128509;23;20435;-84
2022/06/05 08:11:54;;;;;;;8.13;7.40;;;22.60;92.40;;;;;;6102159;23;20434;-82
2022/06/05 08:14:20;;;;;;;8.17;7.57;;;22.70;92.30;;;;;;6102656;23;20423;-84
2022/06/05 08:16:50;;;;;;;8.33;7.73;;;22.70;91.80;;;;;;6127571;23;20944;-83
2022/06/05 08:19:20;;;;;;;8.87;8.17;;;22.20;92.70;;;;;;6130476;23;20452;-81
2022/06/05 08:21:48;;;;;;;9.03;8.33;;;22.20;93.10;;;;;;6129160;23;20407;-83
2022/06/05 08:24:15;;;;;;;8.93;8.30;;;22.00;93.60;;;;;;6128395;23;20979;-83
2022/06/05 08:26:42;;;;;;;8.40;7.90;;;22.20;93.70;;;;;;6135908;23;20423;-83
2022/06/05 08:29:10;;;;;;;8.10;7.40;;;22.30;93.80;;;;;;6127829;23;20455;-83
2022/06/05 08:31:37;;;;;;;9.00;8.40;;;22.30;93.80;;;;;;6103430;23;20506;-84
2022/06/05 08:34:05;;;;;;;8.27;7.77;;;22.10;94.20;;;;;;6102875;23;20918;-84
2022/06/05 08:36:32;;;;;;;9.40;8.60;;;22.00;94.60;;;;;;6128873;23;20411;-80
2022/06/05 08:42:09;;;;;;;9.17;8.47;;;21.90;94.80;;;;;;6128624;23;20886;-84
2022/06/05 08:44:56;;;;;;;9.97;9.37;;;22.20;95.00;;;;;;6128240;23;20951;-83
2022/06/05 08:47:31;;;;;;;8.80;8.10;;;22.20;94.90;;;;;;6127499;23;20919;-83
2022/06/05 08:50:17;;;;;;;9.10;8.30;;;22.10;95.30;;;;;;6129780;23;20431;-83
2022/06/05 08:53:01;;;;;;;9.90;9.07;;;21.80;95.40;;;;;;6103851;23;20384;-83
2022/06/05 08:55:39;;;;;;;8.97;8.37;;;21.90;95.60;;;;;;6104418;23;20407;-84
2022/06/05 08:58:18;;;;;;;9.07;8.47;;;21.70;96.00;;;;;;6131737;23;20451;-83
2022/06/05 09:00:49;;;;;;;8.73;8.13;;;21.80;96.10;;;;;;6134557;23;20443;-84
2022/06/05 09:03:28;;;;;;;9.70;8.90;;;21.70;96.50;;;;;;6136404;23;20415;-83
2022/06/05 09:06:03;;;;;;;9.33;8.53;;;21.60;97.00;;;;;;6131953;23;21074;-84
2022/06/05 09:08:36;;;;;;;9.53;8.83;;;21.50;97.90;;;;;;6129476;23;20776;-84
2022/06/05 09:11:13;;;;;;;10.00;9.30;;;21.70;98.10;;;;;;6104166;23;20396;-84
2022/06/05 09:14:05;;;;;;;10.13;9.23;;;21.60;98.70;;;;;;6130511;23;20400;-84
2022/06/05 09:16:40;;;;;;;10.57;9.77;;;21.30;99.90;;;;;;6125490;23;20400;-82
2022/06/05 09:19:12;;;;;;;11.10;10.10;;;21.40;99.90;;;;;;6101431;23;20443;-84
2022/06/05 09:22:02;;;;;;;11.80;10.60;;;21.50;99.90;;;;;;6100909;23;20412;-83
2022/06/05 09:25:12;;;;;;;13.50;11.10;;;21.40;99.90;;;;;;6101614;23;20400;-83
2022/06/05 09:28:07;;;;;;;10.70;9.70;;;21.10;99.90;;;;;;6122015;23;20752;-84
2022/06/05 09:30:51;;;;;;;11.60;10.80;;;20.90;99.90;;;;;;6100398;23;20446;-83
2022/06/05 09:33:30;;;;;;;11.87;10.97;;;20.80;99.90;;;;;;6100889;23;20403;-84
2022/06/05 09:36:03;;;;;;;10.87;10.07;;;20.90;99.90;;;;;;6100732;23;20485;-81
2022/06/05 09:38:40;;;;;;;12.37;11.37;;;20.80;99.90;;;;;;6126478;23;20427;-83
2022/06/05 09:41:10;;;;;;;12.07;11.10;;;20.90;99.90;;;;;;6126089;23;20423;-82
2022/06/05 09:44:06;;;;;;;13.80;12.60;;;21.10;99.90;;;;;;6125275;23;20412;-83
2022/06/05 09:47:12;;;;;;;12.23;11.40;;;21.00;99.90;;;;;;6022145;23;20535;-82
2022/06/05 09:49:45;;;;;;;13.10;12.10;;;20.80;99.90;;;;;;6097369;23;20454;-83
2022/06/05 09:52:21;;;;;;;12.87;11.97;;;21.00;99.90;;;;;;6100154;23;20396;-84
2022/06/05 09:54:52;;;;;;;12.20;11.27;;;21.20;99.90;;;;;;6126310;23;20404;-84
2022/06/05 10:00:29;;;;;;;13.47;12.40;;;21.00;99.90;;;;;;6124405;23;20446;-82
2022/06/05 10:03:04;;;;;;;11.90;11.00;;;20.90;99.90;;;;;;6127576;23;20404;-82
2022/06/05 10:05:34;;;;;;;13.67;12.67;;;20.90;99.90;;;;;;6106565;23;20437;-82
2022/06/05 10:08:26;;;;;;;11.67;10.87;;;21.20;99.90;;;;;;6106088;23;20519;-84
2022/06/05 10:10:59;;;;;;;13.77;12.73;;;20.90;99.90;;;;;;6135350;23;20407;-84
2022/06/05 10:13:50;;;;;;;13.60;12.67;;;20.90;99.90;;;;;;6108803;23;20411;-83
2022/06/05 10:16:28;;;;;;;13.93;12.80;;;20.80;99.90;;;;;;6128424;23;20424;-83
2022/06/05 10:19:16;;;;;;;19.63;13.57;;;20.80;99.90;;;;;;6129057;23;20457;-84
2022/06/05 10:21:53;;;;;;;14.33;13.23;;;20.60;99.90;;;;;;6129606;23;20407;-83
2022/06/05 10:24:19;;;;;;;12.93;11.93;;;20.40;99.90;;;;;;6129532;23;20859;-83
2022/06/05 10:26:48;;;;;;;16.00;14.80;;;20.60;99.90;;;;;;6102154;23;20436;-82
2022/06/05 10:29:27;;;;;;;17.43;16.03;;;20.70;99.90;;;;;;6131275;23;20432;-83
2022/06/05 10:32:20;;;;;;;14.83;13.53;;;20.80;99.90;;;;;;6105005;23;20383;-84
2022/06/05 10:35:26;;;;;;;14.70;13.50;;;21.00;99.90;;;;;;6130379;23;20388;-82
2022/06/05 10:38:16;;;;;;;13.57;12.63;;;21.10;99.90;;;;;;6088827;23;20892;-82
2022/06/05 10:40:53;;;;;;;14.47;13.20;;;21.10;99.90;;;;;;6102123;23;20427;-81
2022/06/05 10:43:29;;;;;;;12.17;11.17;;;21.10;99.90;;;;;;6126170;23;20859;-83
2022/06/05 10:46:06;;;;;;;13.73;12.73;;;21.20;99.90;;;;;;6129548;23;20454;-82
2022/06/05 10:48:55;;;;;;;12.70;11.60;;;21.30;99.90;;;;;;6127826;23;20443;-84
2022/06/05 10:51:41;;;;;;;12.10;11.30;;;21.40;99.90;;;;;;6104557;23;20396;-84
2022/06/05 10:54:29;;;;;;;12.07;11.07;;;21.60;99.90;;;;;;6133333;23;20419;-82
2022/06/05 10:57:11;;;;;;;11.03;10.17;;;21.70;99.90;;;;;;6102593;23;20518;-83
2022/06/05 10:59:56;;;;;;;12.13;11.30;;;22.10;99.90;;;;;;6127773;23;20458;-83
2022/06/05 11:02:23;;;;;;;11.47;10.77;;;22.50;99.90;;;;;;6127078;23;20388;-82
2022/06/05 11:05:11;;;;;;;11.27;10.30;;;22.80;99.90;;;;;;6127646;23;20418;-82
2022/06/05 11:07:59;;;;;;;10.37;9.67;;;23.00;99.90;;;;;;6128296;23;20384;-83
2022/06/05 11:13:53;;;;;;;9.30;8.60;;;23.80;99.90;;;;;;6129474;23;20455;-82
2022/06/05 11:17:17;;;;;;;9.70;9.10;;;24.60;99.60;;;;;;6076909;23;20785;-84
2022/06/05 11:19:49;;;;;;;9.90;9.20;;;24.70;98.50;;;;;;6128173;23;20443;-83
2022/06/05 11:22:19;;;;;;;9.30;8.70;;;25.80;96.10;;;;;;6125283;23;20423;-83
2022/06/05 11:24:48;;;;;;;8.60;8.00;;;25.90;94.90;;;;;;6126373;23;20907;-82
2022/06/05 11:27:53;;;;;;;9.00;8.40;;;25.70;94.60;;;;;;6101459;23;20443;-83
2022/06/05 11:30:43;;;;;;;9.77;9.00;;;25.70;94.40;;;;;;6119518;23;20467;-83
2022/06/05 11:33:26;;;;;;;9.47;8.77;;;25.80;94.30;;;;;;6127561;23;20394;-85
2022/06/05 11:36:24;;;;;;;9.40;8.70;;;25.60;94.20;;;;;;6133128;23;20408;-86
2022/06/05 11:39:12;;;;;;;10.43;9.73;;;25.30;94.50;;;;;;6111079;23;20478;-85
2022/06/05 11:42:02;;;;;;;8.20;7.70;;;24.80;96.00;;;;;;6138585;23;20400;-86
2022/06/05 11:44:47;;;;;;;10.17;9.37;;;24.70;95.60;;;;;;6135736;23;20392;-85
2022/06/05 11:47:38;;;;;;;9.70;9.10;;;24.40;96.50;;;;;;6137965;23;20515;-85
2022/06/05 11:50:16;;;;;;;10.93;10.10;;;23.90;97.70;;;;;;6113428;23;20503;-83
2022/06/05 11:53:14;;;;;;;9.80;9.10;;;24.00;98.00;;;;;;6116041;23;20458;-83
2022/06/05 11:55:56;;;;;;;8.60;8.10;;;24.00;97.50;;;;;;6132752;23;20415;-83
2022/06/05 11:58:51;;;;;;;9.67;9.00;;;23.70;97.80;;;;;;6133295;23;20424;-83
2022/06/05 12:01:23;;;;;;;9.67;8.87;;;23.50;98.20;;;;;;6129800;23;20398;-83
2022/06/05 12:04:05;;;;;;;10.17;9.47;;;23.30;98.10;;;;;;6105685;23;20394;-82
2022/06/05 12:06:48;;;;;;;9.60;9.00;;;23.10;98.80;;;;;;6131181;23;20377;-84
2022/06/05 12:09:22;;;;;;;9.90;9.20;;;23.00;99.40;;;;;;6105720;23;20439;-84
2022/06/05 12:12:31;;;;;;;9.30;8.70;;;23.20;99.30;;;;;;6107647;23;20388;-83
2022/06/05 12:15:16;;;;;;;10.13;9.50;;;23.40;98.60;;;;;;6133897;23;20399;-83
2022/06/05 12:18:03;;;;;;;11.37;10.60;;;23.50;98.50;;;;;;6135928;23;20402;-82
2022/06/05 12:20:54;;;;;;;10.47;9.77;;;23.40;99.20;;;;;;6151274;23;20451;-83
2022/06/05 12:23:29;;;;;;;11.00;10.20;;;23.30;98.90;;;;;;6152480;23;20470;-84
2022/06/05 12:26:12;;;;;;;12.30;11.50;;;22.90;99.70;;;;;;6151116;23;20406;-84
2022/06/05 12:29:09;;;;;;;11.60;10.70;;;22.80;99.90;;;;;;6149471;23;20471;-83
2022/06/05 12:31:52;;;;;;;11.30;10.50;;;22.90;99.90;;;;;;6104119;23;20499;-84
2022/06/05 12:34:56;;;;;;;11.17;10.30;;;22.80;99.90;;;;;;6124228;23;20404;-83
2022/06/05 12:37:29;;;;;;;11.50;10.70;;;22.80;99.90;;;;;;6142383;23;20503;-83
2022/06/05 12:39:58;;;;;;;10.60;9.90;;;22.70;99.90;;;;;;6128546;23;20498;-82
2022/06/05 12:42:27;;;;;;;10.13;9.40;;;22.90;99.90;;;;;;6130215;23;20380;-83
2022/06/05 12:44:57;;;;;;;10.63;9.83;;;23.00;99.90;;;;;;6131053;23;20404;-82
2022/06/05 12:47:57;;;;;;;10.67;9.97;;;23.20;99.80;;;;;;6130768;23;20384;-84
2022/06/05 12:50:46;;;;;;;10.43;9.73;;;22.90;99.90;;;;;;6130138;23;20428;-84
2022/06/05 12:53:46;;;;;;;9.27;8.67;;;22.80;99.90;;;;;;6131402;23;20400;-84
2022/06/05 12:56:18;;;;;;;9.03;8.33;;;23.30;99.60;;;;;;6132941;23;20396;-84
2022/06/05 12:59:10;;;;;;;10.60;9.70;;;23.10;99.90;;;;;;6129439;23;20450;-82
2022/06/05 13:01:57;;;;;;;8.03;7.50;;;23.10;99.90;;;;;;6129989;23;20440;-82
2022/06/05 13:04:47;;;;;;;10.33;9.50;;;22.90;99.80;;;;;;6135403;23;20392;-83
2022/06/05 13:07:47;;;;;;;10.07;8.53;;;23.20;99.70;;;;;;6113359;23;20419;-82
2022/06/05 13:10:36;;;;;;;10.23;9.53;;;23.10;99.70;;;;;;6130967;23;20435;-83
2022/06/05 13:13:17;;;;;;;9.37;8.70;;;22.80;99.90;;;;;;6106723;23;20399;-83
2022/06/05 13:15:56;;;;;;;10.57;9.80;;;22.70;99.90;;;;;;6106760;23;20555;-83
2022/06/05 13:18:49;;;;;;;12.53;11.57;;;22.90;99.90;;;;;;6132834;23;20388;-84
2022/06/05 13:21:42;;;;;;;11.37;10.57;;;22.70;99.90;;;;;;6115659;23;20848;-81
2022/06/05 13:24:32;;;;;;;12.40;11.50;;;22.40;99.90;;;;;;6144730;23;20402;-83
2022/06/05 13:27:28;;;;;;;12.00;11.10;;;22.30;99.90;;;;;;6143183;23;20459;-83
2022/06/05 13:29:57;;;;;;;12.77;11.70;;;22.60;99.90;;;;;;6095437;23;20432;-82
2022/06/05 13:32:46;;;;;;;12.57;11.67;;;22.70;99.90;;;;;;6113307;23;20439;-82
2022/06/05 13:35:20;;;;;;;11.23;10.17;;;22.80;99.90;;;;;;6147694;23;20467;-83
2022/06/05 13:37:59;;;;;;;10.93;10.10;;;22.60;99.90;;;;;;6121080;23;20416;-82
2022/06/05 13:40:45;;;;;;;10.60;9.70;;;22.60;99.90;;;;;;6118502;23;20538;-82
2022/06/05 13:43:19;;;;;;;12.30;11.20;;;22.80;99.90;;;;;;6131519;23;20956;-83
2022/06/05 13:46:00;;;;;;;12.03;11.03;;;22.80;99.90;;;;;;6130595;23;20483;-83